Saturday, January 20, 2018, 10:04 AM EST
Back to Local

KCEF, Chicopee Falls / Westover Air Force Base

Location: Chicopee, MA, United States Lat: 42.2
Local Time: 10:04 AM EST (15:04 GMT) Lon: -72.533
Time Zone: US/Eastern Elev: 246 ft

Show me the last for .
Show Decoded

2018-01-20 08:56 METAR KCEF 201356Z 18004KT 10SM BKN160 BKN220 02/M06 A2975 RMK AO2A SLP083
                 T00151056 =
2018-01-20 07:56 METAR KCEF 201256Z 19008KT 10SM SCT160 BKN220 00/M06 A2973 RMK AO2A SLP076
                 T00031059 =
2018-01-20 06:56 METAR KCEF 201156Z 18007KT 10SM FEW140 BKN220 M01/M07 A2973 RMK AO2A SLP076
                 4/002 T10141069 11007 21023 55016 =
2018-01-20 05:56 METAR KCEF 201056Z AUTO 18008KT 10SM CLR M01/M07 A2972 RMK AO2 SLP073 T10081068
                 =
2018-01-20 04:56 METAR KCEF 200956Z AUTO 17006KT 10SM CLR M02/M07 A2974 RMK AO2 SLP080 T10171070
                 =
2018-01-20 03:56 METAR KCEF 200856Z AUTO 17006KT 10SM CLR M01/M06 A2978 RMK AO2 SLP093 T10121064
                 55017 =
2018-01-20 01:56 METAR KCEF 200656Z AUTO 17008KT 10SM BKN160 M01/M07 A2980 RMK AO2 SLP100
                 T10131070 =
2018-01-20 00:56 METAR KCEF 200556Z AUTO 19005KT 10SM BKN180 M02/M07 A2983 RMK AO2 SLP110
                 T10221075 11022 21052 57025 =
2018-01-19 23:56 METAR KCEF 200456Z AUTO 20006KT 10SM SCT180 M04/M09 A2987 RMK AO2 SLP124
                 T10401087 400101112 =
2018-01-19 22:56 METAR KCEF 200356Z 19003KT 10SM FEW200 M04/M09 A2989 RMK AO2A SLP131 T10441092 =
2018-01-19 21:56 METAR KCEF 200256Z 19008KT 10SM SCT200 M03/M08 A2991 RMK AO2A SLP138 T10341085
                 58009 =
2018-01-19 20:56 METAR KCEF 200156Z 17005KT 10SM FEW100 BKN190 M04/M08 A2993 RMK AO2A SLP145
                 T10451078 =
2018-01-19 19:56 METAR KCEF 200056Z 18004KT 10SM SCT100 BKN210 M04/M07 A2994 RMK AO2A SLP149
                 T10381071 =
2018-01-19 18:56 METAR KCEF 192356Z COR 00000KT 10SM BKN230 M04/M07 A2993 RMK AO2A SLP145 4/002
                 T10371073 10010 21037 53002 COR 2357 =
2018-01-19 17:56 METAR KCEF 192256Z 00000KT 10SM FEW038 SCT180 M02/M07 A2992 RMK AO2A SLP142
                 T10251067 =
2018-01-19 16:56 METAR KCEF 192156Z 00000KT 10SM BKN038 BKN100 BKN180 00/M07 A2993 RMK AO2A
                 SLP145 T10031067 =
2018-01-19 15:56 METAR KCEF 192056Z 00000KT 10SM BKN040 BKN100 BKN180 01/M07 A2993 RMK AO2A
                 SLP144 T00081072 53000 =
2018-01-19 14:56 METAR KCEF 191956Z 31005KT 10SM SCT039 BKN100 BKN180 01/M07 A2992 RMK AO2A
                 SLP141 T00091074 =
2018-01-19 13:56 METAR KCEF 191856Z 31009KT 10SM FEW100 SCT140 BKN200 00/M07 A2992 RMK AO2A
                 SLP141 T00031075 =
2018-01-19 12:56 METAR KCEF 191756Z 21006KT 10SM FEW140 BKN200 00/M08 A2993 RMK AO2A SLP144 4/003
                 T10031085 11002 21112 57024 =
2018-01-19 11:56 METAR KCEF 191656Z 21008KT 10SM FEW140 SCT200 M01/M09 A2995 RMK AO2A SLP151
                 T10121086 =
2018-01-19 10:56 METAR KCEF 191556Z 21007KT 10SM FEW140 SCT200 M02/M09 A2998 RMK AO2A SLP162
                 T10221087 =

Support USWX by starting your Amazon purchase here.